sensor_id;sensor_type;location;lat;lon;timestamp;P1;durP1;ratioP1;P2;durP2;ratioP2
52798;SDS011;38667;42.872;74.622;2022-08-01T00:01:48;7.63;;;4.07;;
52798;SDS011;38667;42.872;74.622;2022-08-01T00:04:14;9.52;;;4.32;;
52798;SDS011;38667;42.872;74.622;2022-08-01T00:06:41;8.38;;;3.90;;
52798;SDS011;38667;42.872;74.622;2022-08-01T00:09:07;4.47;;;2.97;;
52798;SDS011;38667;42.872;74.622;2022-08-01T00:11:33;7.32;;;3.30;;
52798;SDS011;38667;42.872;74.622;2022-08-01T00:14:02;5.38;;;3.00;;
52798;SDS011;38667;42.872;74.622;2022-08-01T00:16:29;6.53;;;3.08;;
52798;SDS011;38667;42.872;74.622;2022-08-01T00:18:55;4.93;;;2.70;;
52798;SDS011;38667;42.872;74.622;2022-08-01T00:21:21;3.70;;;2.38;;
52798;SDS011;38667;42.872;74.622;2022-08-01T00:23:48;5.25;;;2.58;;
52798;SDS011;38667;42.872;74.622;2022-08-01T00:26:16;4.22;;;1.83;;
52798;SDS011;38667;42.872;74.622;2022-08-01T00:28:42;2.72;;;2.08;;
52798;SDS011;38667;42.872;74.622;2022-08-01T00:31:10;3.28;;;1.80;;
52798;SDS011;38667;42.872;74.622;2022-08-01T00:33:36;2.85;;;1.80;;
52798;SDS011;38667;42.872;74.622;2022-08-01T00:36:02;5.05;;;1.50;;
52798;SDS011;38667;42.872;74.622;2022-08-01T00:38:29;2.95;;;1.80;;
52798;SDS011;38667;42.872;74.622;2022-08-01T00:40:55;3.25;;;1.50;;
52798;SDS011;38667;42.872;74.622;2022-08-01T00:43:22;2.13;;;1.60;;
52798;SDS011;38667;42.872;74.622;2022-08-01T00:45:48;4.15;;;1.70;;
52798;SDS011;38667;42.872;74.622;2022-08-01T00:48:21;3.85;;;1.92;;
52798;SDS011;38667;42.872;74.622;2022-08-01T00:50:47;2.05;;;1.70;;
52798;SDS011;38667;42.872;74.622;2022-08-01T00:53:14;4.10;;;1.58;;
52798;SDS011;38667;42.872;74.622;2022-08-01T00:55:40;2.97;;;1.63;;
52798;SDS011;38667;42.872;74.622;2022-08-01T00:58:07;3.40;;;1.70;;
52798;SDS011;38667;42.872;74.622;2022-08-01T01:00:34;5.95;;;2.15;;
52798;SDS011;38667;42.872;74.622;2022-08-01T01:03:01;4.10;;;1.83;;
52798;SDS011;38667;42.872;74.622;2022-08-01T01:05:30;4.93;;;2.05;;
52798;SDS011;38667;42.872;74.622;2022-08-01T01:08:04;6.88;;;2.80;;
52798;SDS011;38667;42.872;74.622;2022-08-01T01:10:40;6.82;;;3.60;;
52798;SDS011;38667;42.872;74.622;2022-08-01T01:13:18;14.93;;;3.72;;
52798;SDS011;38667;42.872;74.622;2022-08-01T01:15:49;12.32;;;4.80;;
52798;SDS011;38667;42.872;74.622;2022-08-01T01:18:22;11.30;;;4.20;;
52798;SDS011;38667;42.872;74.622;2022-08-01T01:20:53;10.05;;;3.78;;
52798;SDS011;38667;42.872;74.622;2022-08-01T01:23:32;8.77;;;3.20;;
52798;SDS011;38667;42.872;74.622;2022-08-01T01:26:17;6.05;;;2.42;;
52798;SDS011;38667;42.872;74.622;2022-08-01T01:29:04;6.35;;;2.40;;
52798;SDS011;38667;42.872;74.622;2022-08-01T01:31:36;6.72;;;2.80;;
52798;SDS011;38667;42.872;74.622;2022-08-01T01:34:09;7.25;;;2.58;;
52798;SDS011;38667;42.872;74.622;2022-08-01T01:36:39;7.18;;;2.60;;
52798;SDS011;38667;42.872;74.622;2022-08-01T01:39:07;5.55;;;2.55;;
52798;SDS011;38667;42.872;74.622;2022-08-01T01:41:34;7.68;;;2.80;;
52798;SDS011;38667;42.872;74.622;2022-08-01T01:44:04;6.97;;;2.65;;
52798;SDS011;38667;42.872;74.622;2022-08-01T01:46:31;10.73;;;2.70;;
52798;SDS011;38667;42.872;74.622;2022-08-01T01:48:58;8.60;;;2.13;;
52798;SDS011;38667;42.872;74.622;2022-08-01T01:51:27;13.05;;;2.67;;
52798;SDS011;38667;42.872;74.622;2022-08-01T01:53:54;6.18;;;2.38;;
52798;SDS011;38667;42.872;74.622;2022-08-01T01:56:22;8.05;;;2.35;;
52798;SDS011;38667;42.872;74.622;2022-08-01T01:58:52;5.55;;;2.75;;
52798;SDS011;38667;42.872;74.622;2022-08-01T02:03:54;6.38;;;3.17;;
52798;SDS011;38667;42.872;74.622;2022-08-01T02:07:40;9.20;;;3.60;;
52798;SDS011;38667;42.872;74.622;2022-08-01T02:10:07;8.23;;;3.42;;
52798;SDS011;38667;42.872;74.622;2022-08-01T02:12:36;11.15;;;4.05;;
52798;SDS011;38667;42.872;74.622;2022-08-01T02:15:07;6.65;;;2.90;;
52798;SDS011;38667;42.872;74.622;2022-08-01T02:17:35;5.30;;;3.47;;
52798;SDS011;38667;42.872;74.622;2022-08-01T02:20:06;11.10;;;3.33;;
52798;SDS011;38667;42.872;74.622;2022-08-01T02:22:34;8.20;;;3.22;;
52798;SDS011;38667;42.872;74.622;2022-08-01T02:25:09;8.73;;;2.97;;
52798;SDS011;38667;42.872;74.622;2022-08-01T02:27:40;6.68;;;3.00;;
52798;SDS011;38667;42.872;74.622;2022-08-01T02:30:12;7.70;;;2.85;;
52798;SDS011;38667;42.872;74.622;2022-08-01T02:32:41;6.45;;;2.80;;
52798;SDS011;38667;42.872;74.622;2022-08-01T02:35:18;7.95;;;3.17;;
52798;SDS011;38667;42.872;74.622;2022-08-01T02:37:52;8.55;;;3.40;;
52798;SDS011;38667;42.872;74.622;2022-08-01T02:40:22;9.40;;;2.95;;
52798;SDS011;38667;42.872;74.622;2022-08-01T02:42:49;7.10;;;3.13;;
52798;SDS011;38667;42.872;74.622;2022-08-01T02:45:18;8.18;;;3.30;;
52798;SDS011;38667;42.872;74.622;2022-08-01T02:47:46;5.38;;;3.78;;
52798;SDS011;38667;42.872;74.622;2022-08-01T02:50:17;9.55;;;3.45;;
52798;SDS011;38667;42.872;74.622;2022-08-01T02:52:46;6.72;;;3.13;;
52798;SDS011;38667;42.872;74.622;2022-08-01T02:55:16;7.95;;;3.47;;
52798;SDS011;38667;42.872;74.622;2022-08-01T02:57:46;8.10;;;3.13;;
52798;SDS011;38667;42.872;74.622;2022-08-01T03:00:15;11.25;;;2.97;;
52798;SDS011;38667;42.872;74.622;2022-08-01T03:02:42;5.45;;;2.60;;
52798;SDS011;38667;42.872;74.622;2022-08-01T03:05:10;10.25;;;3.05;;
52798;SDS011;38667;42.872;74.622;2022-08-01T03:07:39;6.68;;;3.35;;
52798;SDS011;38667;42.872;74.622;2022-08-01T03:10:06;11.90;;;3.63;;
52798;SDS011;38667;42.872;74.622;2022-08-01T03:12:35;6.75;;;3.17;;
52798;SDS011;38667;42.872;74.622;2022-08-01T03:15:06;4.60;;;3.17;;
52798;SDS011;38667;42.872;74.622;2022-08-01T03:17:34;7.65;;;3.88;;
52798;SDS011;38667;42.872;74.622;2022-08-01T03:20:02;7.22;;;3.88;;
52798;SDS011;38667;42.872;74.622;2022-08-01T03:22:30;5.32;;;3.85;;
52798;SDS011;38667;42.872;74.622;2022-08-01T03:24:59;11.10;;;3.45;;
52798;SDS011;38667;42.872;74.622;2022-08-01T03:27:27;8.38;;;3.70;;
52798;SDS011;38667;42.872;74.622;2022-08-01T03:29:54;12.95;;;4.07;;
52798;SDS011;38667;42.872;74.622;2022-08-01T03:32:23;7.88;;;3.15;;
52798;SDS011;38667;42.872;74.622;2022-08-01T03:34:52;7.10;;;3.25;;
52798;SDS011;38667;42.872;74.622;2022-08-01T03:37:21;6.40;;;3.50;;
52798;SDS011;38667;42.872;74.622;2022-08-01T03:39:52;7.18;;;3.08;;
52798;SDS011;38667;42.872;74.622;2022-08-01T03:42:24;5.80;;;3.35;;
52798;SDS011;38667;42.872;74.622;2022-08-01T03:45:10;10.68;;;3.33;;
52798;SDS011;38667;42.872;74.622;2022-08-01T03:47:43;6.50;;;2.95;;
52798;SDS011;38667;42.872;74.622;2022-08-01T03:50:12;7.75;;;3.67;;
52798;SDS011;38667;42.872;74.622;2022-08-01T03:52:39;5.05;;;2.90;;
52798;SDS011;38667;42.872;74.622;2022-08-01T03:55:10;7.25;;;3.03;;
52798;SDS011;38667;42.872;74.622;2022-08-01T03:57:38;6.28;;;2.97;;
52798;SDS011;38667;42.872;74.622;2022-08-01T04:00:05;7.60;;;2.78;;
52798;SDS011;38667;42.872;74.622;2022-08-01T04:02:32;5.03;;;3.10;;
52798;SDS011;38667;42.872;74.622;2022-08-01T04:05:01;8.05;;;3.13;;
52798;SDS011;38667;42.872;74.622;2022-08-01T04:07:28;5.47;;;2.65;;
52798;SDS011;38667;42.872;74.622;2022-08-01T04:09:56;6.22;;;2.60;;
52798;SDS011;38667;42.872;74.622;2022-08-01T04:12:22;6.47;;;2.92;;
52798;SDS011;38667;42.872;74.622;2022-08-01T04:14:48;9.25;;;3.33;;
52798;SDS011;38667;42.872;74.622;2022-08-01T04:17:15;8.00;;;2.90;;
52798;SDS011;38667;42.872;74.622;2022-08-01T04:19:42;5.95;;;2.50;;
52798;SDS011;38667;42.872;74.622;2022-08-01T04:22:11;7.30;;;2.58;;
52798;SDS011;38667;42.872;74.622;2022-08-01T04:24:39;5.43;;;3.00;;
52798;SDS011;38667;42.872;74.622;2022-08-01T04:27:10;4.07;;;2.30;;
52798;SDS011;38667;42.872;74.622;2022-08-01T04:29:39;3.92;;;3.10;;
52798;SDS011;38667;42.872;74.622;2022-08-01T04:32:07;4.07;;;2.72;;
52798;SDS011;38667;42.872;74.622;2022-08-01T04:34:37;6.03;;;2.60;;
52798;SDS011;38667;42.872;74.622;2022-08-01T04:37:07;8.55;;;3.00;;
52798;SDS011;38667;42.872;74.622;2022-08-01T04:39:37;6.63;;;3.08;;
52798;SDS011;38667;42.872;74.622;2022-08-01T04:42:06;4.75;;;2.70;;
52798;SDS011;38667;42.872;74.622;2022-08-01T04:44:33;4.88;;;2.83;;
52798;SDS011;38667;42.872;74.622;2022-08-01T04:47:00;5.72;;;2.75;;
52798;SDS011;38667;42.872;74.622;2022-08-01T04:49:28;3.33;;;2.53;;
52798;SDS011;38667;42.872;74.622;2022-08-01T04:51:56;5.43;;;2.10;;
52798;SDS011;38667;42.872;74.622;2022-08-01T04:54:24;3.25;;;2.50;;
52798;SDS011;38667;42.872;74.622;2022-08-01T04:56:51;3.70;;;2.45;;
52798;SDS011;38667;42.872;74.622;2022-08-01T04:59:19;5.85;;;2.72;;
52798;SDS011;38667;42.872;74.622;2022-08-01T05:01:48;10.18;;;3.40;;
52798;SDS011;38667;42.872;74.622;2022-08-01T05:04:14;4.40;;;2.47;;
52798;SDS011;38667;42.872;74.622;2022-08-01T05:06:40;4.78;;;2.50;;
52798;SDS011;38667;42.872;74.622;2022-08-01T05:09:07;3.95;;;2.80;;
52798;SDS011;38667;42.872;74.622;2022-08-01T05:11:35;4.68;;;2.35;;
52798;SDS011;38667;42.872;74.622;2022-08-01T05:14:01;5.18;;;2.78;;
52798;SDS011;38667;42.872;74.622;2022-08-01T05:16:27;4.53;;;2.67;;
52798;SDS011;38667;42.872;74.622;2022-08-01T05:18:54;4.55;;;3.08;;
52798;SDS011;38667;42.872;74.622;2022-08-01T05:21:20;5.50;;;2.88;;
52798;SDS011;38667;42.872;74.622;2022-08-01T05:23:46;6.00;;;3.35;;
52798;SDS011;38667;42.872;74.622;2022-08-01T05:26:13;6.53;;;3.55;;
52798;SDS011;38667;42.872;74.622;2022-08-01T05:28:40;4.50;;;2.60;;
52798;SDS011;38667;42.872;74.622;2022-08-01T05:31:07;3.70;;;3.22;;
52798;SDS011;38667;42.872;74.622;2022-08-01T05:33:33;5.85;;;2.55;;
52798;SDS011;38667;42.872;74.622;2022-08-01T05:35:59;6.75;;;3.08;;
52798;SDS011;38667;42.872;74.622;2022-08-01T05:38:26;7.75;;;3.17;;
52798;SDS011;38667;42.872;74.622;2022-08-01T05:40:52;4.72;;;2.88;;
52798;SDS011;38667;42.872;74.622;2022-08-01T05:43:18;5.15;;;2.67;;
52798;SDS011;38667;42.872;74.622;2022-08-01T05:45:46;3.47;;;3.10;;
52798;SDS011;38667;42.872;74.622;2022-08-01T05:48:13;4.53;;;2.75;;
52798;SDS011;38667;42.872;74.622;2022-08-01T05:50:39;3.33;;;2.67;;
52798;SDS011;38667;42.872;74.622;2022-08-01T05:53:06;3.65;;;2.60;;
52798;SDS011;38667;42.872;74.622;2022-08-01T05:55:32;4.15;;;2.50;;
52798;SDS011;38667;42.872;74.622;2022-08-01T05:57:59;5.55;;;2.90;;
52798;SDS011;38667;42.872;74.622;2022-08-01T06:00:25;5.28;;;2.60;;
52798;SDS011;38667;42.872;74.622;2022-08-01T06:02:53;4.68;;;2.75;;
52798;SDS011;38667;42.872;74.622;2022-08-01T06:05:19;3.05;;;2.38;;
52798;SDS011;38667;42.872;74.622;2022-08-01T06:07:46;8.70;;;3.05;;
52798;SDS011;38667;42.872;74.622;2022-08-01T06:10:12;4.45;;;2.50;;
52798;SDS011;38667;42.872;74.622;2022-08-01T06:12:39;4.30;;;2.67;;
52798;SDS011;38667;42.872;74.622;2022-08-01T06:15:06;6.40;;;2.90;;
52798;SDS011;38667;42.872;74.622;2022-08-01T06:17:33;5.05;;;2.78;;
52798;SDS011;38667;42.872;74.622;2022-08-01T06:20:01;6.30;;;2.80;;
52798;SDS011;38667;42.872;74.622;2022-08-01T06:22:28;3.63;;;2.60;;
52798;SDS011;38667;42.872;74.622;2022-08-01T06:24:54;2.92;;;2.45;;
52798;SDS011;38667;42.872;74.622;2022-08-01T06:27:20;5.30;;;2.50;;
52798;SDS011;38667;42.872;74.622;2022-08-01T06:29:47;4.45;;;2.80;;
52798;SDS011;38667;42.872;74.622;2022-08-01T06:32:13;4.78;;;2.65;;
52798;SDS011;38667;42.872;74.622;2022-08-01T06:34:39;6.32;;;2.75;;
52798;SDS011;38667;42.872;74.622;2022-08-01T06:37:07;8.20;;;2.53;;
52798;SDS011;38667;42.872;74.622;2022-08-01T06:39:33;5.57;;;2.58;;
52798;SDS011;38667;42.872;74.622;2022-08-01T06:42:00;7.60;;;2.65;;
52798;SDS011;38667;42.872;74.622;2022-08-01T06:44:26;6.78;;;3.00;;
52798;SDS011;38667;42.872;74.622;2022-08-01T06:46:52;4.07;;;2.30;;
52798;SDS011;38667;42.872;74.622;2022-08-01T06:49:21;3.35;;;2.45;;
52798;SDS011;38667;42.872;74.622;2022-08-01T06:51:47;2.75;;;2.47;;
52798;SDS011;38667;42.872;74.622;2022-08-01T06:54:15;3.38;;;2.72;;
52798;SDS011;38667;42.872;74.622;2022-08-01T06:56:41;3.00;;;2.33;;
52798;SDS011;38667;42.872;74.622;2022-08-01T06:59:08;3.47;;;2.58;;
52798;SDS011;38667;42.872;74.622;2022-08-01T07:01:34;6.30;;;2.80;;
52798;SDS011;38667;42.872;74.622;2022-08-01T07:04:01;6.25;;;2.63;;
52798;SDS011;38667;42.872;74.622;2022-08-01T07:06:27;4.95;;;2.72;;
52798;SDS011;38667;42.872;74.622;2022-08-01T07:08:53;4.30;;;2.42;;
52798;SDS011;38667;42.872;74.622;2022-08-01T07:11:23;4.80;;;2.30;;
52798;SDS011;38667;42.872;74.622;2022-08-01T07:13:49;3.95;;;2.50;;
52798;SDS011;38667;42.872;74.622;2022-08-01T07:16:16;4.35;;;2.40;;
52798;SDS011;38667;42.872;74.622;2022-08-01T07:18:42;5.47;;;2.60;;
52798;SDS011;38667;42.872;74.622;2022-08-01T07:21:09;3.83;;;2.40;;
52798;SDS011;38667;42.872;74.622;2022-08-01T07:23:35;2.97;;;2.50;;
52798;SDS011;38667;42.872;74.622;2022-08-01T07:26:02;5.00;;;2.47;;
52798;SDS011;38667;42.872;74.622;2022-08-01T07:28:30;3.58;;;2.80;;
52798;SDS011;38667;42.872;74.622;2022-08-01T07:30:57;5.97;;;2.40;;
52798;SDS011;38667;42.872;74.622;2022-08-01T07:33:23;4.07;;;2.40;;
52798;SDS011;38667;42.872;74.622;2022-08-01T07:35:49;5.25;;;2.42;;
52798;SDS011;38667;42.872;74.622;2022-08-01T07:38:15;6.97;;;2.20;;
52798;SDS011;38667;42.872;74.622;2022-08-01T07:40:42;4.50;;;2.40;;
52798;SDS011;38667;42.872;74.622;2022-08-01T07:43:08;3.20;;;2.63;;
52798;SDS011;38667;42.872;74.622;2022-08-01T07:45:36;4.28;;;2.33;;
52798;SDS011;38667;42.872;74.622;2022-08-01T07:48:03;4.97;;;2.95;;
52798;SDS011;38667;42.872;74.622;2022-08-01T07:50:30;4.03;;;2.58;;
52798;SDS011;38667;42.872;74.622;2022-08-01T07:52:56;6.00;;;2.45;;
52798;SDS011;38667;42.872;74.622;2022-08-01T07:55:23;3.22;;;2.47;;
52798;SDS011;38667;42.872;74.622;2022-08-01T07:57:49;2.80;;;2.40;;
52798;SDS011;38667;42.872;74.622;2022-08-01T08:00:15;4.82;;;2.83;;
52798;SDS011;38667;42.872;74.622;2022-08-01T08:02:43;3.60;;;2.60;;
52798;SDS011;38667;42.872;74.622;2022-08-01T08:05:10;4.32;;;3.00;;
52798;SDS011;38667;42.872;74.622;2022-08-01T08:07:36;6.32;;;3.53;;
52798;SDS011;38667;42.872;74.622;2022-08-01T08:10:03;4.65;;;3.03;;
52798;SDS011;38667;42.872;74.622;2022-08-01T08:12:30;5.93;;;2.97;;
52798;SDS011;38667;42.872;74.622;2022-08-01T08:14:57;3.67;;;2.50;;
52798;SDS011;38667;42.872;74.622;2022-08-01T08:17:24;5.25;;;2.72;;
52798;SDS011;38667;42.872;74.622;2022-08-01T08:19:52;4.60;;;2.47;;
52798;SDS011;38667;42.872;74.622;2022-08-01T08:22:18;4.90;;;2.50;;
52798;SDS011;38667;42.872;74.622;2022-08-01T08:24:44;4.90;;;2.70;;
52798;SDS011;38667;42.872;74.622;2022-08-01T08:27:11;3.95;;;2.88;;
52798;SDS011;38667;42.872;74.622;2022-08-01T08:29:37;6.63;;;2.70;;
52798;SDS011;38667;42.872;74.622;2022-08-01T08:32:04;5.28;;;2.42;;
52798;SDS011;38667;42.872;74.622;2022-08-01T08:34:30;5.30;;;2.92;;
52798;SDS011;38667;42.872;74.622;2022-08-01T08:36:58;5.63;;;2.92;;
52798;SDS011;38667;42.872;74.622;2022-08-01T08:39:24;5.93;;;3.38;;
52798;SDS011;38667;42.872;74.622;2022-08-01T08:41:51;6.00;;;3.65;;
52798;SDS011;38667;42.872;74.622;2022-08-01T08:44:18;5.32;;;2.80;;
52798;SDS011;38667;42.872;74.622;2022-08-01T08:46:45;6.63;;;2.95;;
52798;SDS011;38667;42.872;74.622;2022-08-01T08:49:15;5.78;;;2.92;;
52798;SDS011;38667;42.872;74.622;2022-08-01T08:51:43;5.07;;;2.92;;
52798;SDS011;38667;42.872;74.622;2022-08-01T08:54:15;6.00;;;2.88;;
52798;SDS011;38667;42.872;74.622;2022-08-01T08:56:42;4.50;;;2.78;;
52798;SDS011;38667;42.872;74.622;2022-08-01T08:59:10;4.78;;;3.20;;
52798;SDS011;38667;42.872;74.622;2022-08-01T09:01:37;5.82;;;2.67;;
52798;SDS011;38667;42.872;74.622;2022-08-01T09:04:04;5.30;;;3.20;;
52798;SDS011;38667;42.872;74.622;2022-08-01T09:06:31;4.22;;;2.63;;
52798;SDS011;38667;42.872;74.622;2022-08-01T09:08:58;5.10;;;2.85;;
52798;SDS011;38667;42.872;74.622;2022-08-01T09:11:26;5.45;;;2.85;;
52798;SDS011;38667;42.872;74.622;2022-08-01T09:14:06;2.80;;;2.50;;
52798;SDS011;38667;42.872;74.622;2022-08-01T09:16:34;5.50;;;2.80;;
52798;SDS011;38667;42.872;74.622;2022-08-01T09:19:09;3.95;;;2.50;;
52798;SDS011;38667;42.872;74.622;2022-08-01T09:21:37;3.92;;;2.75;;
52798;SDS011;38667;42.872;74.622;2022-08-01T09:24:12;3.20;;;2.75;;
52798;SDS011;38667;42.872;74.622;2022-08-01T09:26:42;7.50;;;3.70;;
52798;SDS011;38667;42.872;74.622;2022-08-01T09:29:09;6.80;;;3.33;;
52798;SDS011;38667;42.872;74.622;2022-08-01T09:31:43;6.45;;;2.97;;
52798;SDS011;38667;42.872;74.622;2022-08-01T09:34:10;4.85;;;3.30;;
52798;SDS011;38667;42.872;74.622;2022-08-01T09:36:44;7.47;;;3.05;;
52798;SDS011;38667;42.872;74.622;2022-08-01T09:39:14;4.30;;;2.80;;
52798;SDS011;38667;42.872;74.622;2022-08-01T09:41:42;6.43;;;3.08;;
52798;SDS011;38667;42.872;74.622;2022-08-01T09:44:08;4.72;;;2.80;;
52798;SDS011;38667;42.872;74.622;2022-08-01T09:46:35;5.70;;;2.60;;
52798;SDS011;38667;42.872;74.622;2022-08-01T09:49:13;8.75;;;2.95;;
52798;SDS011;38667;42.872;74.622;2022-08-01T09:51:39;4.50;;;2.65;;
52798;SDS011;38667;42.872;74.622;2022-08-01T09:54:06;4.07;;;2.58;;
52798;SDS011;38667;42.872;74.622;2022-08-01T09:56:36;4.13;;;2.80;;
52798;SDS011;38667;42.872;74.622;2022-08-01T09:59:04;5.93;;;2.50;;
52798;SDS011;38667;42.872;74.622;2022-08-01T10:04:16;3.92;;;3.22;;
52798;SDS011;38667;42.872;74.622;2022-08-01T10:06:43;2.75;;;2.28;;
52798;SDS011;38667;42.872;74.622;2022-08-01T10:09:11;4.00;;;2.50;;
52798;SDS011;38667;42.872;74.622;2022-08-01T10:11:39;6.03;;;3.08;;
52798;SDS011;38667;42.872;74.622;2022-08-01T10:14:08;5.32;;;2.78;;
52798;SDS011;38667;42.872;74.622;2022-08-01T10:16:35;3.85;;;2.78;;
52798;SDS011;38667;42.872;74.622;2022-08-01T10:19:02;4.28;;;2.70;;
52798;SDS011;38667;42.872;74.622;2022-08-01T10:21:31;6.03;;;3.05;;
52798;SDS011;38667;42.872;74.622;2022-08-01T10:23:58;5.63;;;2.78;;
52798;SDS011;38667;42.872;74.622;2022-08-01T10:26:27;4.97;;;3.05;;
52798;SDS011;38667;42.872;74.622;2022-08-01T10:28:56;5.57;;;2.92;;
52798;SDS011;38667;42.872;74.622;2022-08-01T10:31:24;5.65;;;2.92;;
52798;SDS011;38667;42.872;74.622;2022-08-01T10:33:51;4.07;;;2.78;;
52798;SDS011;38667;42.872;74.622;2022-08-01T10:36:19;3.45;;;2.72;;
52798;SDS011;38667;42.872;74.622;2022-08-01T10:38:45;5.00;;;2.92;;
52798;SDS011;38667;42.872;74.622;2022-08-01T10:41:13;6.85;;;2.63;;
52798;SDS011;38667;42.872;74.622;2022-08-01T10:43:39;5.38;;;2.42;;
52798;SDS011;38667;42.872;74.622;2022-08-01T10:46:06;4.68;;;2.60;;
52798;SDS011;38667;42.872;74.622;2022-08-01T10:48:38;4.93;;;2.83;;
52798;SDS011;38667;42.872;74.622;2022-08-01T10:51:10;4.68;;;2.67;;
52798;SDS011;38667;42.872;74.622;2022-08-01T10:53:37;4.93;;;2.80;;
52798;SDS011;38667;42.872;74.622;2022-08-01T10:56:11;6.53;;;2.33;;
52798;SDS011;38667;42.872;74.622;2022-08-01T10:58:38;5.78;;;2.70;;
52798;SDS011;38667;42.872;74.622;2022-08-01T11:01:14;3.63;;;2.42;;
52798;SDS011;38667;42.872;74.622;2022-08-01T11:03:43;3.65;;;2.58;;
52798;SDS011;38667;42.872;74.622;2022-08-01T11:06:22;2.78;;;2.58;;
52798;SDS011;38667;42.872;74.622;2022-08-01T11:08:50;6.65;;;2.40;;
52798;SDS011;38667;42.872;74.622;2022-08-01T11:11:18;3.60;;;2.85;;
52798;SDS011;38667;42.872;74.622;2022-08-01T11:14:00;6.95;;;2.42;;
52798;SDS011;38667;42.872;74.622;2022-08-01T11:16:29;4.72;;;2.90;;
52798;SDS011;38667;42.872;74.622;2022-08-01T11:18:58;5.93;;;2.70;;
52798;SDS011;38667;42.872;74.622;2022-08-01T11:27:21;8.32;;;2.53;;
52798;SDS011;38667;42.872;74.622;2022-08-01T11:32:50;5.28;;;2.95;;
52798;SDS011;38667;42.872;74.622;2022-08-01T11:35:19;5.55;;;3.00;;
52798;SDS011;38667;42.872;74.622;2022-08-01T11:37:46;5.93;;;2.90;;
52798;SDS011;38667;42.872;74.622;2022-08-01T11:40:16;6.47;;;3.15;;
52798;SDS011;38667;42.872;74.622;2022-08-01T11:42:43;5.70;;;3.03;;
52798;SDS011;38667;42.872;74.622;2022-08-01T11:45:10;7.10;;;3.38;;
52798;SDS011;38667;42.872;74.622;2022-08-01T11:47:43;7.88;;;3.58;;
52798;SDS011;38667;42.872;74.622;2022-08-01T11:53:02;4.13;;;3.30;;
52798;SDS011;38667;42.872;74.622;2022-08-01T11:55:29;5.05;;;3.22;;
52798;SDS011;38667;42.872;74.622;2022-08-01T11:57:59;5.55;;;2.85;;
52798;SDS011;38667;42.872;74.622;2022-08-01T12:00:26;7.28;;;3.47;;
52798;SDS011;38667;42.872;74.622;2022-08-01T12:02:56;6.35;;;3.20;;
52798;SDS011;38667;42.872;74.622;2022-08-01T12:05:23;4.32;;;3.10;;
52798;SDS011;38667;42.872;74.622;2022-08-01T12:07:50;5.35;;;2.72;;
52798;SDS011;38667;42.872;74.622;2022-08-01T12:10:19;6.07;;;3.00;;
52798;SDS011;38667;42.872;74.622;2022-08-01T12:12:47;5.47;;;2.90;;
52798;SDS011;38667;42.872;74.622;2022-08-01T12:15:14;4.00;;;2.70;;
52798;SDS011;38667;42.872;74.622;2022-08-01T12:17:42;3.72;;;2.78;;
52798;SDS011;38667;42.872;74.622;2022-08-01T12:20:11;6.03;;;3.10;;
52798;SDS011;38667;42.872;74.622;2022-08-01T12:22:38;5.40;;;2.20;;
52798;SDS011;38667;42.872;74.622;2022-08-01T12:25:05;7.40;;;2.78;;
52798;SDS011;38667;42.872;74.622;2022-08-01T12:27:34;4.90;;;2.75;;
52798;SDS011;38667;42.872;74.622;2022-08-01T12:30:01;5.07;;;2.65;;
52798;SDS011;38667;42.872;74.622;2022-08-01T12:32:31;8.00;;;3.00;;
52798;SDS011;38667;42.872;74.622;2022-08-01T12:35:00;7.63;;;3.10;;
52798;SDS011;38667;42.872;74.622;2022-08-01T12:37:28;6.95;;;3.42;;
52798;SDS011;38667;42.872;74.622;2022-08-01T12:39:55;3.80;;;2.83;;
52798;SDS011;38667;42.872;74.622;2022-08-01T12:42:21;6.55;;;2.75;;
52798;SDS011;38667;42.872;74.622;2022-08-01T12:44:50;8.10;;;3.03;;
52798;SDS011;38667;42.872;74.622;2022-08-01T12:47:17;4.93;;;2.58;;
52798;SDS011;38667;42.872;74.622;2022-08-01T12:49:44;5.50;;;2.90;;
52798;SDS011;38667;42.872;74.622;2022-08-01T12:52:12;7.18;;;3.55;;
52798;SDS011;38667;42.872;74.622;2022-08-01T12:57:32;11.75;;;3.67;;
52798;SDS011;38667;42.872;74.622;2022-08-01T13:00:07;8.68;;;3.50;;
52798;SDS011;38667;42.872;74.622;2022-08-01T13:02:35;15.90;;;3.80;;
52798;SDS011;38667;42.872;74.622;2022-08-01T13:05:02;13.93;;;3.10;;
52798;SDS011;38667;42.872;74.622;2022-08-01T13:07:39;6.95;;;2.90;;
52798;SDS011;38667;42.872;74.622;2022-08-01T13:10:08;7.90;;;2.50;;
52798;SDS011;38667;42.872;74.622;2022-08-01T13:12:35;6.45;;;2.95;;
52798;SDS011;38667;42.872;74.622;2022-08-01T13:17:53;5.55;;;2.80;;
52798;SDS011;38667;42.872;74.622;2022-08-01T13:20:27;5.57;;;2.88;;
52798;SDS011;38667;42.872;74.622;2022-08-01T13:22:55;7.93;;;3.20;;
52798;SDS011;38667;42.872;74.622;2022-08-01T13:25:49;10.23;;;3.40;;
52798;SDS011;38667;42.872;74.622;2022-08-01T13:28:17;8.00;;;3.60;;
52798;SDS011;38667;42.872;74.622;2022-08-01T13:30:51;6.38;;;3.20;;
52798;SDS011;38667;42.872;74.622;2022-08-01T13:33:23;10.23;;;3.55;;
52798;SDS011;38667;42.872;74.622;2022-08-01T13:35:51;8.35;;;3.47;;
52798;SDS011;38667;42.872;74.622;2022-08-01T13:38:18;33.78;;;4.28;;
52798;SDS011;38667;42.872;74.622;2022-08-01T13:40:44;8.35;;;3.35;;
52798;SDS011;38667;42.872;74.622;2022-08-01T13:43:10;16.00;;;3.97;;
52798;SDS011;38667;42.872;74.622;2022-08-01T13:45:37;11.02;;;3.55;;
52798;SDS011;38667;42.872;74.622;2022-08-01T13:48:03;20.95;;;3.92;;
52798;SDS011;38667;42.872;74.622;2022-08-01T13:50:31;25.45;;;4.13;;
52798;SDS011;38667;42.872;74.622;2022-08-01T13:52:57;10.45;;;3.63;;
52798;SDS011;38667;42.872;74.622;2022-08-01T13:55:24;8.35;;;3.15;;
52798;SDS011;38667;42.872;74.622;2022-08-01T13:57:50;6.03;;;2.60;;
52798;SDS011;38667;42.872;74.622;2022-08-01T14:00:16;7.88;;;3.00;;
52798;SDS011;38667;42.872;74.622;2022-08-01T14:02:43;7.93;;;2.58;;
52798;SDS011;38667;42.872;74.622;2022-08-01T14:05:09;9.00;;;2.80;;
52798;SDS011;38667;42.872;74.622;2022-08-01T14:07:37;7.30;;;2.20;;
52798;SDS011;38667;42.872;74.622;2022-08-01T14:10:03;7.10;;;2.08;;
52798;SDS011;38667;42.872;74.622;2022-08-01T14:12:30;5.72;;;1.73;;
52798;SDS011;38667;42.872;74.622;2022-08-01T14:14:56;4.93;;;1.80;;
52798;SDS011;38667;42.872;74.622;2022-08-01T14:17:22;13.20;;;2.10;;
52798;SDS011;38667;42.872;74.622;2022-08-01T14:19:48;4.50;;;1.50;;
52798;SDS011;38667;42.872;74.622;2022-08-01T14:22:15;5.63;;;1.98;;
52798;SDS011;38667;42.872;74.622;2022-08-01T14:24:42;5.35;;;2.28;;
52798;SDS011;38667;42.872;74.622;2022-08-01T14:27:08;10.77;;;2.25;;
52798;SDS011;38667;42.872;74.622;2022-08-01T14:29:35;9.60;;;2.80;;
52798;SDS011;38667;42.872;74.622;2022-08-01T14:32:01;4.78;;;1.95;;
52798;SDS011;38667;42.872;74.622;2022-08-01T14:34:28;4.82;;;1.58;;
52798;SDS011;38667;42.872;74.622;2022-08-01T14:36:54;3.58;;;1.50;;
52798;SDS011;38667;42.872;74.622;2022-08-01T14:39:20;3.47;;;1.42;;
52798;SDS011;38667;42.872;74.622;2022-08-01T14:41:48;8.07;;;2.38;;
52798;SDS011;38667;42.872;74.622;2022-08-01T14:44:14;2.78;;;2.00;;
52798;SDS011;38667;42.872;74.622;2022-08-01T14:46:40;5.63;;;2.58;;
52798;SDS011;38667;42.872;74.622;2022-08-01T14:49:06;7.07;;;2.72;;
52798;SDS011;38667;42.872;74.622;2022-08-01T14:51:33;10.48;;;2.50;;
52798;SDS011;38667;42.872;74.622;2022-08-01T14:53:59;5.55;;;2.38;;
52798;SDS011;38667;42.872;74.622;2022-08-01T14:56:25;7.10;;;2.75;;
52798;SDS011;38667;42.872;74.622;2022-08-01T14:58:53;5.32;;;2.67;;
52798;SDS011;38667;42.872;74.622;2022-08-01T15:01:19;9.15;;;4.00;;
52798;SDS011;38667;42.872;74.622;2022-08-01T15:03:46;7.55;;;3.10;;